sensor_id;sensor_type;location;lat;lon;timestamp;pressure;altitude;pressure_sealevel;temperature;humidity
74633;BME280;63139;52.018;8.552;2023-04-01T00:00:30;98366.44;;;9.67;89.57
74633;BME280;63139;52.018;8.552;2023-04-01T00:02:58;98355.50;;;9.63;89.36
74633;BME280;63139;52.018;8.552;2023-04-01T00:05:26;98354.91;;;9.61;89.41
74633;BME280;63139;52.018;8.552;2023-04-01T00:07:54;98355.13;;;9.60;89.20
74633;BME280;63139;52.018;8.552;2023-04-01T00:10:23;98357.75;;;9.60;89.21
74633;BME280;63139;52.018;8.552;2023-04-01T00:12:51;98353.72;;;9.57;89.23
74633;BME280;63139;52.018;8.552;2023-04-01T00:15:20;98358.41;;;9.55;89.31
74633;BME280;63139;52.018;8.552;2023-04-01T00:17:48;98357.00;;;9.53;89.65
74633;BME280;63139;52.018;8.552;2023-04-01T00:20:16;98358.63;;;9.54;89.41
74633;BME280;63139;52.018;8.552;2023-04-01T00:22:44;98354.34;;;9.53;89.37
74633;BME280;63139;52.018;8.552;2023-04-01T00:25:12;98354.56;;;9.51;89.62
74633;BME280;63139;52.018;8.552;2023-04-01T00:27:41;98343.63;;;9.48;89.98
74633;BME280;63139;52.018;8.552;2023-04-01T00:30:10;98355.59;;;9.50;89.56
74633;BME280;63139;52.018;8.552;2023-04-01T00:32:38;98353.97;;;9.49;89.72
74633;BME280;63139;52.018;8.552;2023-04-01T00:35:06;98348.69;;;9.49;89.72
74633;BME280;63139;52.018;8.552;2023-04-01T00:37:35;98360.88;;;9.50;89.57
74633;BME280;63139;52.018;8.552;2023-04-01T00:40:19;98352.56;;;9.47;89.60
74633;BME280;63139;52.018;8.552;2023-04-01T00:42:50;98348.31;;;9.46;89.68
74633;BME280;63139;52.018;8.552;2023-04-01T00:45:31;98351.56;;;9.48;89.54
74633;BME280;63139;52.018;8.552;2023-04-01T00:48:03;98351.56;;;9.48;89.46
74633;BME280;63139;52.018;8.552;2023-04-01T00:50:34;98351.13;;;9.51;89.93
74633;BME280;63139;52.018;8.552;2023-04-01T00:53:03;98352.94;;;9.50;89.56
74633;BME280;63139;52.018;8.552;2023-04-01T00:55:35;98345.03;;;9.50;89.90
74633;BME280;63139;52.018;8.552;2023-04-01T00:58:10;98347.09;;;9.48;90.11
74633;BME280;63139;52.018;8.552;2023-04-01T01:00:41;98339.38;;;9.47;89.77
74633;BME280;63139;52.018;8.552;2023-04-01T01:03:10;98346.84;;;9.50;89.67
74633;BME280;63139;52.018;8.552;2023-04-01T01:05:55;98338.13;;;9.49;89.92
74633;BME280;63139;52.018;8.552;2023-04-01T01:08:33;98334.91;;;9.47;89.67
74633;BME280;63139;52.018;8.552;2023-04-01T01:11:08;98339.16;;;9.48;89.46
74633;BME280;63139;52.018;8.552;2023-04-01T01:13:45;98335.47;;;9.49;89.34
74633;BME280;63139;52.018;8.552;2023-04-01T01:16:24;98346.66;;;9.51;89.22
74633;BME280;63139;52.018;8.552;2023-04-01T01:18:58;98338.50;;;9.53;88.98
74633;BME280;63139;52.018;8.552;2023-04-01T01:21:47;98331.41;;;9.53;88.84
74633;BME280;63139;52.018;8.552;2023-04-01T01:24:33;98340.94;;;9.54;88.84
74633;BME280;63139;52.018;8.552;2023-04-01T01:27:06;98325.09;;;9.54;88.64
74633;BME280;63139;52.018;8.552;2023-04-01T01:29:45;98338.09;;;9.56;88.68
74633;BME280;63139;52.018;8.552;2023-04-01T01:32:28;98330.94;;;9.56;88.54
74633;BME280;63139;52.018;8.552;2023-04-01T01:35:19;98330.94;;;9.56;88.39
74633;BME280;63139;52.018;8.552;2023-04-01T01:37:51;98340.75;;;9.56;88.15
74633;BME280;63139;52.018;8.552;2023-04-01T01:40:20;98328.91;;;9.58;88.12
74633;BME280;63139;52.018;8.552;2023-04-01T01:42:53;98327.09;;;9.59;88.12
74633;BME280;63139;52.018;8.552;2023-04-01T01:45:23;98324.66;;;9.57;88.16
74633;BME280;63139;52.018;8.552;2023-04-01T01:47:53;98324.44;;;9.59;88.13
74633;BME280;63139;52.018;8.552;2023-04-01T01:50:26;98326.88;;;9.60;87.76
74633;BME280;63139;52.018;8.552;2023-04-01T01:53:01;98328.72;;;9.60;87.69
74633;BME280;63139;52.018;8.552;2023-04-01T01:55:31;98326.06;;;9.60;87.67
74633;BME280;63139;52.018;8.552;2023-04-01T01:58:04;98326.72;;;9.55;87.40
74633;BME280;63139;52.018;8.552;2023-04-01T02:00:34;98329.72;;;9.59;87.71
74633;BME280;63139;52.018;8.552;2023-04-01T02:03:03;98336.22;;;9.56;88.11
74633;BME280;63139;52.018;8.552;2023-04-01T02:05:33;98332.63;;;9.51;87.92
74633;BME280;63139;52.018;8.552;2023-04-01T02:08:10;98340.34;;;9.52;88.14
74633;BME280;63139;52.018;8.552;2023-04-01T02:10:42;98341.16;;;9.53;88.10
74633;BME280;63139;52.018;8.552;2023-04-01T02:13:16;98330.78;;;9.51;88.43
74633;BME280;63139;52.018;8.552;2023-04-01T02:15:48;98336.88;;;9.52;88.48
74633;BME280;63139;52.018;8.552;2023-04-01T02:18:19;98336.06;;;9.51;88.22
74633;BME280;63139;52.018;8.552;2023-04-01T02:20:49;98335.47;;;9.49;88.33
74633;BME280;63139;52.018;8.552;2023-04-01T02:23:18;98321.47;;;9.49;88.64
74633;BME280;63139;52.018;8.552;2023-04-01T02:25:46;98330.44;;;9.48;88.52
74633;BME280;63139;52.018;8.552;2023-04-01T02:28:17;98332.03;;;9.49;88.72
74633;BME280;63139;52.018;8.552;2023-04-01T02:30:47;98323.53;;;9.47;88.77
74633;BME280;63139;52.018;8.552;2023-04-01T02:33:19;98321.91;;;9.46;88.67
74633;BME280;63139;52.018;8.552;2023-04-01T02:35:50;98325.16;;;9.41;88.54
74633;BME280;63139;52.018;8.552;2023-04-01T02:38:18;98318.88;;;9.42;88.42
74633;BME280;63139;52.018;8.552;2023-04-01T02:40:48;98326.78;;;9.42;88.33
74633;BME280;63139;52.018;8.552;2023-04-01T02:43:16;98328.63;;;9.42;88.59
74633;BME280;63139;52.018;8.552;2023-04-01T02:45:45;98333.09;;;9.41;88.43
74633;BME280;63139;52.018;8.552;2023-04-01T02:48:13;98325.16;;;9.41;88.48
74633;BME280;63139;52.018;8.552;2023-04-01T02:50:41;98328.41;;;9.43;88.60
74633;BME280;63139;52.018;8.552;2023-04-01T02:53:10;98317.47;;;9.40;88.65
74633;BME280;63139;52.018;8.552;2023-04-01T02:55:38;98325.97;;;9.42;88.19
74633;BME280;63139;52.018;8.552;2023-04-01T02:58:06;98330.25;;;9.43;88.18
74633;BME280;63139;52.018;8.552;2023-04-01T03:00:34;98333.69;;;9.43;88.17
74633;BME280;63139;52.018;8.552;2023-04-01T03:03:02;98328.63;;;9.42;87.89
74633;BME280;63139;52.018;8.552;2023-04-01T03:05:30;98329.66;;;9.41;88.03
74633;BME280;63139;52.018;8.552;2023-04-01T03:07:58;98334.50;;;9.44;88.10
74633;BME280;63139;52.018;8.552;2023-04-01T03:10:27;98331.88;;;9.44;88.00
74633;BME280;63139;52.018;8.552;2023-04-01T03:12:55;98332.88;;;9.43;87.99
74633;BME280;63139;52.018;8.552;2023-04-01T03:15:23;98331.88;;;9.44;87.88
74633;BME280;63139;52.018;8.552;2023-04-01T03:17:51;98334.94;;;9.41;87.84
74633;BME280;63139;52.018;8.552;2023-04-01T03:20:19;98330.69;;;9.40;87.88
74633;BME280;63139;52.018;8.552;2023-04-01T03:22:46;98327.03;;;9.41;87.99
74633;BME280;63139;52.018;8.552;2023-04-01T03:25:14;98333.09;;;9.41;88.07
74633;BME280;63139;52.018;8.552;2023-04-01T03:27:43;98331.91;;;9.37;87.89
74633;BME280;63139;52.018;8.552;2023-04-01T03:30:12;98340.44;;;9.39;88.31
74633;BME280;63139;52.018;8.552;2023-04-01T03:32:48;98336.19;;;9.38;87.80
74633;BME280;63139;52.018;8.552;2023-04-01T03:35:15;98340.66;;;9.38;88.12
74633;BME280;63139;52.018;8.552;2023-04-01T03:37:45;98345.31;;;9.35;88.15
74633;BME280;63139;52.018;8.552;2023-04-01T03:40:12;98343.09;;;9.39;88.03
74633;BME280;63139;52.018;8.552;2023-04-01T03:42:41;98344.31;;;9.37;87.95
74633;BME280;63139;52.018;8.552;2023-04-01T03:45:11;98351.22;;;9.38;88.22
74633;BME280;63139;52.018;8.552;2023-04-01T03:47:39;98352.84;;;9.39;88.26
74633;BME280;63139;52.018;8.552;2023-04-01T03:50:08;98352.84;;;9.39;88.35
74633;BME280;63139;52.018;8.552;2023-04-01T03:52:36;98349.38;;;9.38;88.21
74633;BME280;63139;52.018;8.552;2023-04-01T03:55:04;98348.38;;;9.39;88.30
74633;BME280;63139;52.018;8.552;2023-04-01T03:57:33;98343.91;;;9.40;88.27
74633;BME280;63139;52.018;8.552;2023-04-01T04:00:13;98356.50;;;9.38;88.33
74633;BME280;63139;52.018;8.552;2023-04-01T04:02:45;98357.50;;;9.37;88.73
74633;BME280;63139;52.018;8.552;2023-04-01T04:05:19;98352.22;;;9.37;88.50
74633;BME280;63139;52.018;8.552;2023-04-01T04:07:46;98360.34;;;9.35;88.75
74633;BME280;63139;52.018;8.552;2023-04-01T04:10:14;98352.44;;;9.35;88.83
74633;BME280;63139;52.018;8.552;2023-04-01T04:12:42;98346.78;;;9.31;89.02
74633;BME280;63139;52.018;8.552;2023-04-01T04:15:12;98348.00;;;9.29;89.11
74633;BME280;63139;52.018;8.552;2023-04-01T04:17:40;98345.97;;;9.31;89.08
74633;BME280;63139;52.018;8.552;2023-04-01T04:20:09;98350.44;;;9.30;89.14
74633;BME280;63139;52.018;8.552;2023-04-01T04:22:37;98350.84;;;9.27;88.88
74633;BME280;63139;52.018;8.552;2023-04-01T04:25:07;98352.69;;;9.27;88.93
74633;BME280;63139;52.018;8.552;2023-04-01T04:27:36;98353.72;;;9.26;89.15
74633;BME280;63139;52.018;8.552;2023-04-01T04:30:10;98350.84;;;9.27;88.94
74633;BME280;63139;52.018;8.552;2023-04-01T04:32:40;98349.84;;;9.28;89.02
74633;BME280;63139;52.018;8.552;2023-04-01T04:35:10;98351.66;;;9.28;89.08
74633;BME280;63139;52.018;8.552;2023-04-01T04:37:38;98354.31;;;9.28;88.93
74633;BME280;63139;52.018;8.552;2023-04-01T04:40:07;98353.72;;;9.26;88.91
74633;BME280;63139;52.018;8.552;2023-04-01T04:42:35;98359.00;;;9.26;89.02
74633;BME280;63139;52.018;8.552;2023-04-01T04:45:09;98354.50;;;9.26;88.95
74633;BME280;63139;52.018;8.552;2023-04-01T04:47:44;98353.50;;;9.27;88.96
74633;BME280;63139;52.018;8.552;2023-04-01T04:50:12;98356.94;;;9.28;88.92
74633;BME280;63139;52.018;8.552;2023-04-01T04:52:40;98362.03;;;9.29;89.15
74633;BME280;63139;52.018;8.552;2023-04-01T04:55:08;98350.84;;;9.27;88.96
74633;BME280;63139;52.018;8.552;2023-04-01T04:57:37;98366.50;;;9.29;89.13
74633;BME280;63139;52.018;8.552;2023-04-01T05:00:06;98361.22;;;9.29;89.13
74633;BME280;63139;52.018;8.552;2023-04-01T05:02:53;98363.47;;;9.25;89.11
74633;BME280;63139;52.018;8.552;2023-04-01T05:05:21;98370.34;;;9.26;88.98
74633;BME280;63139;52.018;8.552;2023-04-01T05:07:49;98376.69;;;9.25;89.04
74633;BME280;63139;52.018;8.552;2023-04-01T05:10:18;98364.50;;;9.24;89.17
74633;BME280;63139;52.018;8.552;2023-04-01T05:12:47;98373.03;;;9.20;89.35
74633;BME280;63139;52.018;8.552;2023-04-01T05:15:18;98361.94;;;9.11;89.49
74633;BME280;63139;52.018;8.552;2023-04-01T05:17:46;98377.50;;;9.19;89.57
74633;BME280;63139;52.018;8.552;2023-04-01T05:20:15;98383.59;;;9.20;89.63
74633;BME280;63139;52.018;8.552;2023-04-01T05:22:44;98379.13;;;9.20;89.37
74633;BME280;63139;52.018;8.552;2023-04-01T05:25:11;98381.97;;;9.19;89.49
74633;BME280;63139;52.018;8.552;2023-04-01T05:27:39;98380.97;;;9.20;89.27
74633;BME280;63139;52.018;8.552;2023-04-01T05:30:08;98375.31;;;9.16;89.37
74633;BME280;63139;52.018;8.552;2023-04-01T05:32:54;98383.03;;;9.18;89.34
74633;BME280;63139;52.018;8.552;2023-04-01T05:35:24;98381.19;;;9.18;89.28
74633;BME280;63139;52.018;8.552;2023-04-01T05:37:52;98385.88;;;9.16;89.30
74633;BME280;63139;52.018;8.552;2023-04-01T05:40:20;98386.06;;;9.15;89.30
74633;BME280;63139;52.018;8.552;2023-04-01T05:42:48;98381.41;;;9.17;89.36
74633;BME280;63139;52.018;8.552;2023-04-01T05:45:16;98377.75;;;9.18;89.30
74633;BME280;63139;52.018;8.552;2023-04-01T05:48:02;98383.03;;;9.18;89.09
74633;BME280;63139;52.018;8.552;2023-04-01T05:50:39;98359.09;;;9.06;89.06
74633;BME280;63139;52.018;8.552;2023-04-01T05:53:09;98377.50;;;9.19;89.00
74633;BME280;63139;52.018;8.552;2023-04-01T05:55:40;98379.13;;;9.20;88.87
74633;BME280;63139;52.018;8.552;2023-04-01T05:58:08;98382.56;;;9.21;88.79
74633;BME280;63139;52.018;8.552;2023-04-01T06:00:38;98387.84;;;9.21;88.76
74633;BME280;63139;52.018;8.552;2023-04-01T06:03:06;98385.63;;;9.24;88.66
74633;BME280;63139;52.018;8.552;2023-04-01T06:05:39;98384.16;;;9.28;88.65
74633;BME280;63139;52.018;8.552;2023-04-01T06:08:11;98383.97;;;9.30;88.57
74633;BME280;63139;52.018;8.552;2023-04-01T06:10:51;98387.38;;;9.37;88.21
74633;BME280;63139;52.018;8.552;2023-04-01T06:13:26;98387.31;;;9.44;88.06
74633;BME280;63139;52.018;8.552;2023-04-01T06:16:03;98397.03;;;9.50;87.96
74633;BME280;63139;52.018;8.552;2023-04-01T06:18:55;98399.44;;;9.58;87.68
74633;BME280;63139;52.018;8.552;2023-04-01T06:24:46;98410.31;;;9.74;86.94
74633;BME280;63139;52.018;8.552;2023-04-01T06:27:29;98410.59;;;9.91;86.73
74633;BME280;63139;52.018;8.552;2023-04-01T06:30:25;98415.94;;;10.09;86.31
74633;BME280;63139;52.018;8.552;2023-04-01T06:33:09;98416.63;;;10.30;85.62
74633;BME280;63139;52.018;8.552;2023-04-01T06:35:54;98420.22;;;10.54;85.25
74633;BME280;63139;52.018;8.552;2023-04-01T06:38:37;98427.31;;;10.78;84.76
74633;BME280;63139;52.018;8.552;2023-04-01T06:41:37;98434.81;;;10.99;84.17
74633;BME280;63139;52.018;8.552;2023-04-01T06:44:17;98427.00;;;11.04;83.54
74633;BME280;63139;52.018;8.552;2023-04-01T06:47:27;98426.06;;;11.17;83.31
74633;BME280;63139;52.018;8.552;2023-04-01T06:50:25;98428.94;;;11.15;83.33
74633;BME280;63139;52.018;8.552;2023-04-01T06:53:19;98430.72;;;11.03;83.25
74633;BME280;63139;52.018;8.552;2023-04-01T06:56:05;98443.06;;;10.91;83.87
74633;BME280;63139;52.018;8.552;2023-04-01T06:58:48;98438.94;;;10.77;83.72
74633;BME280;63139;52.018;8.552;2023-04-01T07:01:21;98446.34;;;10.68;84.04
74633;BME280;63139;52.018;8.552;2023-04-01T07:03:53;98445.59;;;10.61;84.34
74633;BME280;63139;52.018;8.552;2023-04-01T07:06:30;98452.16;;;10.59;84.26
74633;BME280;63139;52.018;8.552;2023-04-01T07:09:05;98453.25;;;10.51;84.44
74633;BME280;63139;52.018;8.552;2023-04-01T07:12:09;98451.44;;;10.45;84.63
74633;BME280;63139;52.018;8.552;2023-04-01T07:15:05;98456.00;;;10.38;85.00
74633;BME280;63139;52.018;8.552;2023-04-01T07:17:41;98452.44;;;10.26;85.32
74633;BME280;63139;52.018;8.552;2023-04-01T07:20:13;98463.22;;;10.24;85.40
74633;BME280;63139;52.018;8.552;2023-04-01T07:22:45;98464.50;;;10.22;85.61
74633;BME280;63139;52.018;8.552;2023-04-01T07:25:35;98466.75;;;10.18;85.57
74633;BME280;63139;52.018;8.552;2023-04-01T07:28:23;98466.09;;;10.23;85.65
74633;BME280;63139;52.018;8.552;2023-04-01T07:31:10;98467.28;;;10.27;85.83
74633;BME280;63139;52.018;8.552;2023-04-01T07:33:45;98462.16;;;10.32;85.29
74633;BME280;63139;52.018;8.552;2023-04-01T07:36:22;98462.75;;;10.34;85.20
74633;BME280;63139;52.018;8.552;2023-04-01T07:38:59;98471.34;;;10.29;85.38
74633;BME280;63139;52.018;8.552;2023-04-01T07:41:51;98474.34;;;10.33;85.61
74633;BME280;63139;52.018;8.552;2023-04-01T07:44:31;98479.31;;;10.47;85.42
74633;BME280;63139;52.018;8.552;2023-04-01T07:47:19;98478.34;;;10.67;85.10
74633;BME280;63139;52.018;8.552;2023-04-01T07:50:00;98480.19;;;10.84;84.86
74633;BME280;63139;52.018;8.552;2023-04-01T07:52:41;98482.34;;;10.94;84.70
74633;BME280;63139;52.018;8.552;2023-04-01T07:55:23;98483.00;;;11.08;84.19
74633;BME280;63139;52.018;8.552;2023-04-01T07:58:02;98490.19;;;11.19;84.14
74633;BME280;63139;52.018;8.552;2023-04-01T08:00:42;98490.72;;;11.27;83.68
74633;BME280;63139;52.018;8.552;2023-04-01T08:03:31;98492.84;;;11.37;83.38
74633;BME280;63139;52.018;8.552;2023-04-01T08:06:08;98491.75;;;11.45;83.42
74633;BME280;63139;52.018;8.552;2023-04-01T08:08:51;98497.34;;;11.55;83.21
74633;BME280;63139;52.018;8.552;2023-04-01T08:12:06;98500.03;;;11.66;82.54
74633;BME280;63139;52.018;8.552;2023-04-01T08:15:18;98505.31;;;11.85;82.49
74633;BME280;63139;52.018;8.552;2023-04-01T08:18:15;98505.72;;;12.00;82.12
74633;BME280;63139;52.018;8.552;2023-04-01T08:20:53;98505.66;;;12.18;81.79
74633;BME280;63139;52.018;8.552;2023-04-01T08:23:26;98514.47;;;12.42;80.92
74633;BME280;63139;52.018;8.552;2023-04-01T08:25:59;98514.94;;;12.62;80.71
74633;BME280;63139;52.018;8.552;2023-04-01T08:28:36;98521.44;;;12.78;79.80
74633;BME280;63139;52.018;8.552;2023-04-01T08:31:13;98522.47;;;13.00;79.53
74633;BME280;63139;52.018;8.552;2023-04-01T08:33:46;98521.31;;;13.08;79.37
74633;BME280;63139;52.018;8.552;2023-04-01T08:36:18;98523.97;;;13.19;79.19
74633;BME280;63139;52.018;8.552;2023-04-01T08:39:02;98522.38;;;13.18;79.31
74633;BME280;63139;52.018;8.552;2023-04-01T08:41:48;98526.41;;;13.33;78.55
74633;BME280;63139;52.018;8.552;2023-04-01T08:44:56;98527.38;;;13.55;78.18
74633;BME280;63139;52.018;8.552;2023-04-01T08:47:44;98531.09;;;13.82;76.91
74633;BME280;63139;52.018;8.552;2023-04-01T08:50:32;98527.78;;;14.04;75.56
74633;BME280;63139;52.018;8.552;2023-04-01T08:53:21;98527.03;;;14.08;75.91
74633;BME280;63139;52.018;8.552;2023-04-01T08:56:06;98536.38;;;14.22;75.18
74633;BME280;63139;52.018;8.552;2023-04-01T08:58:54;98540.81;;;14.33;75.31
74633;BME280;63139;52.018;8.552;2023-04-01T09:01:41;98537.84;;;14.30;75.51
74633;BME280;63139;52.018;8.552;2023-04-01T09:04:41;98547.25;;;14.37;74.27
74633;BME280;63139;52.018;8.552;2023-04-01T09:07:23;98545.47;;;14.55;73.18
74633;BME280;63139;52.018;8.552;2023-04-01T09:10:18;98544.91;;;14.69;73.26
74633;BME280;63139;52.018;8.552;2023-04-01T09:13:08;98543.84;;;14.87;72.53
74633;BME280;63139;52.018;8.552;2023-04-01T09:16:17;98546.25;;;15.05;70.95
74633;BME280;63139;52.018;8.552;2023-04-01T09:22:12;98554.28;;;15.27;71.39
74633;BME280;63139;52.018;8.552;2023-04-01T09:25:01;98559.38;;;15.29;71.16
74633;BME280;63139;52.018;8.552;2023-04-01T09:27:43;98562.91;;;15.34;70.86
74633;BME280;63139;52.018;8.552;2023-04-01T09:30:33;98563.38;;;15.48;70.18
74633;BME280;63139;52.018;8.552;2023-04-01T09:33:36;98562.47;;;15.59;70.27
74633;BME280;63139;52.018;8.552;2023-04-01T09:36:18;98561.38;;;15.77;70.17
74633;BME280;63139;52.018;8.552;2023-04-01T09:38:56;98567.38;;;15.89;70.32
74633;BME280;63139;52.018;8.552;2023-04-01T09:41:29;98570.69;;;16.01;70.40
74633;BME280;63139;52.018;8.552;2023-04-01T09:44:15;98575.31;;;16.06;68.75
74633;BME280;63139;52.018;8.552;2023-04-01T09:47:15;98583.81;;;16.03;69.74
74633;BME280;63139;52.018;8.552;2023-04-01T09:50:20;98579.91;;;15.88;69.60
74633;BME280;63139;52.018;8.552;2023-04-01T09:53:05;98586.19;;;15.77;71.13
74633;BME280;63139;52.018;8.552;2023-04-01T09:55:57;98581.25;;;15.47;71.04
74633;BME280;63139;52.018;8.552;2023-04-01T09:59:07;98582.25;;;15.25;71.48
74633;BME280;63139;52.018;8.552;2023-04-01T10:02:31;98584.88;;;15.03;72.75
74633;BME280;63139;52.018;8.552;2023-04-01T10:05:29;98575.59;;;14.89;71.87
74633;BME280;63139;52.018;8.552;2023-04-01T10:11:16;98592.06;;;14.86;73.00
74633;BME280;63139;52.018;8.552;2023-04-01T10:14:11;98592.38;;;14.72;74.02
74633;BME280;63139;52.018;8.552;2023-04-01T10:17:06;98597.78;;;14.94;72.71
74633;BME280;63139;52.018;8.552;2023-04-01T10:20:08;98599.47;;;15.34;72.35
74633;BME280;63139;52.018;8.552;2023-04-01T10:22:56;98601.88;;;15.74;70.49
74633;BME280;63139;52.018;8.552;2023-04-01T10:25:47;98597.84;;;16.15;68.23
74633;BME280;63139;52.018;8.552;2023-04-01T10:28:34;98603.34;;;16.57;68.66
74633;BME280;63139;52.018;8.552;2023-04-01T10:31:41;98594.13;;;16.69;67.52
74633;BME280;63139;52.018;8.552;2023-04-01T10:37:42;98597.25;;;16.61;67.52
74633;BME280;63139;52.018;8.552;2023-04-01T10:40:46;98599.47;;;16.69;66.61
74633;BME280;63139;52.018;8.552;2023-04-01T10:43:46;98598.94;;;16.46;67.44
74633;BME280;63139;52.018;8.552;2023-04-01T10:46:47;98613.31;;;16.40;67.78
74633;BME280;63139;52.018;8.552;2023-04-01T10:49:39;98613.16;;;16.24;68.54
74633;BME280;63139;52.018;8.552;2023-04-01T10:55:37;98612.47;;;15.30;70.40
74633;BME280;63139;52.018;8.552;2023-04-01T11:15:26;98617.38;;;16.20;70.02
74633;BME280;63139;52.018;8.552;2023-04-01T11:18:39;98629.59;;;16.16;69.37
74633;BME280;63139;52.018;8.552;2023-04-01T11:21:44;98631.28;;;16.01;69.87
74633;BME280;63139;52.018;8.552;2023-04-01T11:24:46;98631.91;;;15.64;70.79
74633;BME280;63139;52.018;8.552;2023-04-01T11:28:03;98633.47;;;15.27;71.13
74633;BME280;63139;52.018;8.552;2023-04-01T11:30:53;98634.47;;;15.04;72.00
74633;BME280;63139;52.018;8.552;2023-04-01T11:33:28;98637.53;;;14.96;72.25
74633;BME280;63139;52.018;8.552;2023-04-01T11:36:08;98640.28;;;15.18;71.95
74633;BME280;63139;52.018;8.552;2023-04-01T11:38:57;98650.31;;;15.49;70.71
74633;BME280;63139;52.018;8.552;2023-04-01T11:41:52;98644.78;;;15.34;71.07
74633;BME280;63139;52.018;8.552;2023-04-01T11:44:48;98651.25;;;15.21;72.02
74633;BME280;63139;52.018;8.552;2023-04-01T11:47:45;98659.59;;;15.25;72.00
74633;BME280;63139;52.018;8.552;2023-04-01T11:50:22;98653.50;;;15.29;71.82
74633;BME280;63139;52.018;8.552;2023-04-01T11:53:05;98658.91;;;15.34;70.87
74633;BME280;63139;52.018;8.552;2023-04-01T11:55:47;98663.28;;;15.40;71.05
74633;BME280;63139;52.018;8.552;2023-04-01T11:58:35;98658.03;;;15.45;70.28
74633;BME280;63139;52.018;8.552;2023-04-01T12:01:15;98665.78;;;15.64;70.33
74633;BME280;63139;52.018;8.552;2023-04-01T12:04:25;98665.97;;;15.79;70.46
74633;BME280;63139;52.018;8.552;2023-04-01T12:07:03;98667.19;;;15.88;70.44
74633;BME280;63139;52.018;8.552;2023-04-01T12:09:37;98671.03;;;15.97;69.44
74633;BME280;63139;52.018;8.552;2023-04-01T12:12:16;98679.19;;;16.07;69.43
74633;BME280;63139;52.018;8.552;2023-04-01T12:14:54;98679.81;;;16.14;69.26
74633;BME280;63139;52.018;8.552;2023-04-01T12:17:34;98688.97;;;16.23;69.07
74633;BME280;63139;52.018;8.552;2023-04-01T12:20:28;98685.81;;;16.26;68.03
74633;BME280;63139;52.018;8.552;2023-04-01T12:23:05;98686.88;;;16.25;68.56
74633;BME280;63139;52.018;8.552;2023-04-01T12:25:47;98687.13;;;16.24;67.81
74633;BME280;63139;52.018;8.552;2023-04-01T12:28:25;98693.06;;;16.31;68.55
74633;BME280;63139;52.018;8.552;2023-04-01T12:31:03;98694.69;;;16.32;67.66
74633;BME280;63139;52.018;8.552;2023-04-01T12:33:47;98696.56;;;16.31;68.15
74633;BME280;63139;52.018;8.552;2023-04-01T12:36:31;98705.09;;;16.28;68.20
74633;BME280;63139;52.018;8.552;2023-04-01T12:39:19;98705.56;;;16.25;67.84
74633;BME280;63139;52.018;8.552;2023-04-01T12:41:53;98701.72;;;16.16;67.87
74633;BME280;63139;52.018;8.552;2023-04-01T12:44:37;98707.63;;;16.18;67.74
74633;BME280;63139;52.018;8.552;2023-04-01T12:47:31;98711.72;;;16.26;68.48
74633;BME280;63139;52.018;8.552;2023-04-01T12:50:28;98713.34;;;16.27;68.02
74633;BME280;63139;52.018;8.552;2023-04-01T12:53:16;98712.78;;;16.25;68.34
74633;BME280;63139;52.018;8.552;2023-04-01T12:55:48;98713.53;;;16.20;68.26
74633;BME280;63139;52.018;8.552;2023-04-01T12:58:45;98720.53;;;16.26;67.82
74633;BME280;63139;52.018;8.552;2023-04-01T13:01:27;98719.44;;;16.22;67.80
74633;BME280;63139;52.018;8.552;2023-04-01T13:04:32;98728.59;;;16.10;68.00
74633;BME280;63139;52.018;8.552;2023-04-01T13:10:03;98730.53;;;15.59;68.67
74633;BME280;63139;52.018;8.552;2023-04-01T13:12:52;98731.66;;;15.46;69.63
74633;BME280;63139;52.018;8.552;2023-04-01T13:15:29;98744.16;;;15.29;70.96
74633;BME280;63139;52.018;8.552;2023-04-01T13:18:10;98744.72;;;15.14;71.05
74633;BME280;63139;52.018;8.552;2023-04-01T13:20:45;98748.50;;;15.02;71.48
74633;BME280;63139;52.018;8.552;2023-04-01T13:23:27;98754.41;;;15.04;71.78
74633;BME280;63139;52.018;8.552;2023-04-01T13:26:06;98748.44;;;15.13;70.86
74633;BME280;63139;52.018;8.552;2023-04-01T13:28:43;98746.75;;;15.24;70.95
74633;BME280;63139;52.018;8.552;2023-04-01T13:31:31;98758.16;;;15.36;70.65
74633;BME280;63139;52.018;8.552;2023-04-01T13:34:13;98755.84;;;15.40;70.99
74633;BME280;63139;52.018;8.552;2023-04-01T13:36:56;98755.44;;;15.48;70.84
74633;BME280;63139;52.018;8.552;2023-04-01T13:39:39;98757.28;;;15.47;69.75
74633;BME280;63139;52.018;8.552;2023-04-01T13:42:16;98756.91;;;15.56;69.74
74633;BME280;63139;52.018;8.552;2023-04-01T13:44:50;98760.03;;;15.52;70.01
74633;BME280;63139;52.018;8.552;2023-04-01T13:47:32;98761.31;;;15.50;70.52
74633;BME280;63139;52.018;8.552;2023-04-01T13:50:37;98764.13;;;15.27;71.93
74633;BME280;63139;52.018;8.552;2023-04-01T13:53:38;98771.22;;;15.21;72.84
74633;BME280;63139;52.018;8.552;2023-04-01T13:56:15;98773.50;;;15.29;71.94
74633;BME280;63139;52.018;8.552;2023-04-01T13:59:02;98780.22;;;15.32;71.94
74633;BME280;63139;52.018;8.552;2023-04-01T14:01:40;98782.88;;;15.32;72.01
74633;BME280;63139;52.018;8.552;2023-04-01T14:04:30;98776.41;;;15.28;72.50
74633;BME280;63139;52.018;8.552;2023-04-01T14:07:12;98790.38;;;15.18;72.80
74633;BME280;63139;52.018;8.552;2023-04-01T14:09:48;98792.72;;;15.14;73.24
74633;BME280;63139;52.018;8.552;2023-04-01T14:12:28;98789.31;;;15.02;73.21
74633;BME280;63139;52.018;8.552;2023-04-01T14:15:14;98794.06;;;15.00;73.42
74633;BME280;63139;52.018;8.552;2023-04-01T14:20:40;98802.84;;;15.01;72.97
74633;BME280;63139;52.018;8.552;2023-04-01T14:23:30;98809.03;;;14.90;72.34
74633;BME280;63139;52.018;8.552;2023-04-01T14:29:10;98817.66;;;14.68;73.58
74633;BME280;63139;52.018;8.552;2023-04-01T14:31:48;98810.75;;;14.56;74.11
74633;BME280;63139;52.018;8.552;2023-04-01T14:34:26;98821.31;;;14.51;74.51
74633;BME280;63139;52.018;8.552;2023-04-01T14:37:13;98819.91;;;14.48;76.24
74633;BME280;63139;52.018;8.552;2023-04-01T14:39:51;98815.03;;;14.45;75.43
74633;BME280;63139;52.018;8.552;2023-04-01T14:42:41;98823.16;;;14.50;75.59
74633;BME280;63139;52.018;8.552;2023-04-01T14:45:30;98829.31;;;14.51;75.30
74633;BME280;63139;52.018;8.552;2023-04-01T14:48:16;98836.94;;;14.47;75.31
74633;BME280;63139;52.018;8.552;2023-04-01T14:50:46;98840.41;;;14.48;75.00